Time;durP1;ratioP1;P1;durP2;ratioP2;P2;SDS_P1;SDS_P2;PMS_P1;PMS_P2;Temp;Humidity;BMP_temperature;BMP_pressure;BME280_temperature;BME280_humidity;BME280_pressure;Samples;Min_cycle;Max_cycle;Signal;HPM_P1;HPM_P2
2023/12/25 00:05:01;;;;;;;75.90;9.40;;;11.30;99.90;;;;;;10552988;27;20055;-65
2023/12/25 00:10:04;;;;;;;56.45;6.65;;;11.30;99.90;;;;;;10553261;27;20130;-65
2023/12/25 00:15:09;;;;;;;58.08;9.07;;;11.30;99.90;;;;;;10565780;27;20081;-65
2023/12/25 00:20:11;;;;;;;76.88;8.73;;;11.30;99.90;;;;;;10555825;28;20442;-65
2023/12/25 00:25:13;;;;;;;50.63;7.47;;;11.30;99.90;;;;;;10559887;28;20391;-66
2023/12/25 00:30:17;;;;;;;46.90;7.22;;;11.40;99.90;;;;;;10570507;27;20058;-65
2023/12/25 00:35:19;;;;;;;67.07;10.90;;;11.30;99.90;;;;;;10565256;27;20058;-66
2023/12/25 00:40:21;;;;;;;74.78;10.10;;;11.40;99.90;;;;;;10559695;27;20623;-66
2023/12/25 00:45:26;;;;;;;53.57;6.07;;;11.30;99.90;;;;;;10570391;27;20044;-66
2023/12/25 00:50:28;;;;;;;58.95;8.00;;;11.40;99.90;;;;;;10571454;27;20067;-66
2023/12/25 00:55:30;;;;;;;61.05;10.23;;;11.40;99.90;;;;;;10571812;27;20055;-64
2023/12/25 01:00:34;;;;;;;51.40;8.98;;;11.50;99.90;;;;;;10575414;27;20455;-66
2023/12/25 01:05:36;;;;;;;56.92;8.63;;;11.40;99.90;;;;;;10568984;27;20036;-64
2023/12/25 01:10:38;;;;;;;56.80;7.20;;;11.30;99.90;;;;;;10566136;27;20048;-64
2023/12/25 01:15:42;;;;;;;56.70;11.13;;;11.40;99.90;;;;;;10572008;27;20873;-66
2023/12/25 01:20:46;;;;;;;55.70;7.70;;;11.40;99.90;;;;;;10555047;27;20048;-65
2023/12/25 01:25:48;;;;;;;55.63;9.43;;;11.40;99.90;;;;;;10571032;27;20078;-65
2023/12/25 01:30:53;;;;;;;47.95;9.35;;;11.50;99.90;;;;;;10565634;27;21336;-65
2023/12/25 01:35:55;;;;;;;59.53;8.32;;;11.40;99.90;;;;;;10571761;27;20058;-65
2023/12/25 01:40:57;;;;;;;59.00;8.57;;;11.40;99.90;;;;;;10569103;27;20063;-65
2023/12/25 01:46:01;;;;;;;56.57;7.37;;;11.40;99.90;;;;;;10557460;27;20427;-66
2023/12/25 01:51:04;;;;;;;50.00;6.25;;;11.40;99.90;;;;;;10568131;27;20700;-65
2023/12/25 01:56:06;;;;;;;35.08;4.63;;;11.40;99.90;;;;;;10551047;27;20047;-64
2023/12/25 02:01:10;;;;;;;39.72;7.40;;;11.50;99.90;;;;;;10554283;27;20672;-66
2023/12/25 02:06:13;;;;;;;59.20;7.30;;;11.40;99.90;;;;;;10564502;27;20116;-66
2023/12/25 02:11:15;;;;;;;38.63;6.65;;;11.50;99.90;;;;;;10553690;27;20043;-65
2023/12/25 02:16:19;;;;;;;56.42;6.93;;;11.40;99.90;;;;;;10555315;27;20524;-66
2023/12/25 02:21:21;;;;;;;54.88;6.82;;;11.50;99.90;;;;;;10554539;27;20502;-66
2023/12/25 02:26:28;;;;;;;27.43;4.87;;;11.40;99.90;;;;;;10560867;27;20071;-63
2023/12/25 02:31:30;;;;;;;41.83;6.45;;;11.60;99.90;;;;;;10561778;27;20433;-65
2023/12/25 02:36:32;;;;;;;77.93;8.90;;;11.60;99.90;;;;;;10566029;27;20056;-64
2023/12/25 02:41:36;;;;;;;52.40;7.03;;;11.50;99.90;;;;;;10560916;27;20055;-64
2023/12/25 02:46:38;;;;;;;46.75;8.20;;;11.60;99.90;;;;;;10553330;27;20192;-63
2023/12/25 02:51:40;;;;;;;55.13;8.43;;;11.50;99.90;;;;;;10560276;27;20826;-64
2023/12/25 02:56:43;;;;;;;41.60;7.43;;;11.50;99.90;;;;;;10561310;27;20142;-66
2023/12/25 03:01:45;;;;;;;61.13;8.27;;;11.50;99.90;;;;;;10558851;27;20963;-65
2023/12/25 03:06:48;;;;;;;29.35;4.75;;;11.50;99.90;;;;;;10560877;27;20048;-66
2023/12/25 03:11:51;;;;;;;38.20;5.23;;;11.50;99.90;;;;;;10558829;27;20577;-65
2023/12/25 03:16:53;;;;;;;46.95;5.72;;;11.60;99.90;;;;;;10563892;27;20071;-65
2023/12/25 03:21:58;;;;;;;49.90;9.23;;;11.60;99.90;;;;;;10563169;27;20051;-66
2023/12/25 03:27:01;;;;;;;45.63;7.75;;;11.50;99.90;;;;;;10560706;27;20420;-65
2023/12/25 03:32:04;;;;;;;52.05;7.53;;;11.60;99.90;;;;;;10564610;27;20544;-65
2023/12/25 03:37:06;;;;;;;46.77;5.33;;;11.60;99.90;;;;;;10566090;27;20620;-65
2023/12/25 03:42:09;;;;;;;39.13;6.43;;;11.60;99.90;;;;;;10559417;27;20089;-65
2023/12/25 03:47:12;;;;;;;48.88;7.00;;;11.50;99.90;;;;;;10555620;27;20071;-65
2023/12/25 03:52:14;;;;;;;49.40;7.15;;;11.50;99.90;;;;;;10562524;27;20510;-65
2023/12/25 04:15:33;;;;;;;43.92;6.10;;;11.60;99.90;;;;;;10529772;27;20121;-67
2023/12/25 04:20:36;;;;;;;28.63;3.05;;;11.50;99.90;;;;;;10548248;28;20047;-66
2023/12/25 04:25:38;;;;;;;13.63;3.93;;;11.60;99.90;;;;;;10561961;28;20090;-64
2023/12/25 04:30:41;;;;;;;16.00;2.93;;;11.60;99.90;;;;;;10547055;28;20065;-65
2023/12/25 04:35:43;;;;;;;9.57;1.90;;;11.60;99.90;;;;;;10551523;28;20112;-65
2023/12/25 04:40:45;;;;;;;7.43;1.67;;;11.70;99.90;;;;;;10543405;28;20058;-65
2023/12/25 04:45:49;;;;;;;11.33;2.07;;;11.70;99.90;;;;;;10542998;28;20059;-66
2023/12/25 04:50:52;;;;;;;5.90;1.23;;;11.80;99.90;;;;;;10541481;28;20055;-64
2023/12/25 04:55:54;;;;;;;9.40;1.27;;;11.60;99.90;;;;;;10545055;28;20048;-64
2023/12/25 05:00:57;;;;;;;9.43;1.02;;;11.50;99.90;;;;;;10542266;28;20035;-63
2023/12/25 05:11:20;;;;;;;9.43;1.83;;;11.10;99.90;;;;;;10545554;28;20043;-64
2023/12/25 05:16:24;;;;;;;23.10;2.58;;;11.00;99.90;;;;;;10541400;28;20040;-65
2023/12/25 05:21:26;;;;;;;21.50;2.63;;;10.90;99.90;;;;;;10539606;28;20387;-64
2023/12/25 05:26:28;;;;;;;17.95;2.63;;;10.90;99.90;;;;;;10516872;28;20749;-64
2023/12/25 05:31:32;;;;;;;20.90;2.20;;;10.90;99.90;;;;;;10518713;28;20500;-64
2023/12/25 05:36:34;;;;;;;21.73;2.97;;;11.00;99.90;;;;;;10509854;28;20106;-64
2023/12/25 05:41:38;;;;;;;21.05;2.35;;;11.00;99.90;;;;;;10511273;28;20526;-64
2023/12/25 05:46:42;;;;;;;15.52;2.03;;;11.00;99.90;;;;;;10508728;28;20137;-64
2023/12/25 05:51:46;;;;;;;11.52;1.48;;;11.00;99.90;;;;;;10513420;28;20645;-64
2023/12/25 05:56:49;;;;;;;14.60;2.17;;;11.00;99.90;;;;;;10508665;28;20048;-64
2023/12/25 06:01:54;;;;;;;8.60;1.38;;;11.10;99.90;;;;;;10499226;28;20810;-64
2023/12/25 06:06:56;;;;;;;17.33;1.58;;;11.30;99.90;;;;;;10512390;28;20693;-64
2023/12/25 06:11:58;;;;;;;8.57;1.83;;;11.20;99.90;;;;;;10510953;28;20457;-64
2023/12/25 06:17:02;;;;;;;6.80;1.35;;;11.10;99.90;;;;;;10500570;28;20074;-65
2023/12/25 06:22:04;;;;;;;14.93;1.95;;;11.30;99.90;;;;;;10508134;28;20043;-64
2023/12/25 06:27:06;;;;;;;13.63;1.90;;;11.30;99.90;;;;;;10504249;28;20052;-64
2023/12/25 06:32:10;;;;;;;15.50;2.40;;;11.30;99.90;;;;;;10505233;28;20047;-64
2023/12/25 06:37:12;;;;;;;12.73;1.30;;;11.20;99.90;;;;;;10509688;28;20060;-65
2023/12/25 06:42:14;;;;;;;12.93;2.30;;;11.30;99.90;;;;;;10506018;28;20090;-65
2023/12/25 06:47:17;;;;;;;13.63;1.95;;;11.30;99.90;;;;;;10505827;28;20062;-64
2023/12/25 06:52:20;;;;;;;10.75;1.30;;;11.30;99.90;;;;;;10502219;28;20131;-64
2023/12/25 06:57:22;;;;;;;14.35;1.65;;;11.10;99.90;;;;;;10509726;28;20063;-65
2023/12/25 07:02:26;;;;;;;15.77;2.45;;;11.00;99.90;;;;;;10498995;28;20047;-64
2023/12/25 07:07:28;;;;;;;8.48;1.58;;;11.00;99.90;;;;;;10505409;28;20051;-66
2023/12/25 07:12:30;;;;;;;17.03;3.03;;;11.00;99.90;;;;;;10509671;28;20055;-65
2023/12/25 07:17:34;;;;;;;10.53;1.43;;;11.10;99.90;;;;;;10501285;28;20040;-64
2023/12/25 07:22:35;;;;;;;13.80;1.92;;;11.00;99.90;;;;;;10506624;28;20760;-64
2023/12/25 07:27:40;;;;;;;12.77;1.90;;;11.00;99.90;;;;;;10505179;28;20045;-64
2023/12/25 07:32:43;;;;;;;14.57;2.05;;;11.10;99.90;;;;;;10508108;28;20390;-64
2023/12/25 07:37:45;;;;;;;15.07;1.88;;;11.00;99.90;;;;;;10506914;28;20065;-65
2023/12/25 07:42:47;;;;;;;16.35;2.25;;;11.10;99.90;;;;;;10503572;28;20047;-64
2023/12/25 07:47:52;;;;;;;9.07;1.45;;;11.20;99.90;;;;;;10508833;28;20047;-65
2023/12/25 07:52:54;;;;;;;12.45;2.72;;;11.10;99.90;;;;;;10517193;28;20048;-64
2023/12/25 07:57:56;;;;;;;21.63;2.03;;;11.20;99.90;;;;;;10512064;28;20062;-64
2023/12/25 08:02:59;;;;;;;12.43;1.90;;;11.10;99.90;;;;;;10507170;28;20048;-64
2023/12/25 08:08:01;;;;;;;10.88;2.65;;;11.10;99.90;;;;;;10508212;28;20060;-64
2023/12/25 08:13:04;;;;;;;10.32;2.08;;;11.10;99.90;;;;;;10508202;28;20430;-63
2023/12/25 08:18:07;;;;;;;23.60;3.37;;;11.10;99.90;;;;;;10504606;28;21476;-65
2023/12/25 08:23:09;;;;;;;21.25;2.70;;;11.20;99.90;;;;;;10501508;28;20502;-64
2023/12/25 08:28:20;;;;;;;10.32;2.63;;;11.10;99.90;;;;;;10507399;28;20423;-64
2023/12/25 08:33:32;;;;;;;8.50;1.80;;;11.00;99.90;;;;;;10505553;28;20046;-63
2023/12/25 08:38:38;;;;;;;10.50;1.77;;;11.00;99.90;;;;;;10505306;28;20052;-64
2023/12/25 08:43:41;;;;;;;8.13;1.45;;;10.90;99.90;;;;;;10502010;28;20553;-64
2023/12/25 08:48:45;;;;;;;11.27;1.75;;;11.20;99.90;;;;;;10502005;28;20063;-64
2023/12/25 08:53:47;;;;;;;5.32;1.33;;;11.00;99.90;;;;;;10506821;28;20056;-63
2023/12/25 08:58:52;;;;;;;11.52;1.45;;;11.00;99.90;;;;;;10505720;28;20800;-64
2023/12/25 09:03:56;;;;;;;15.65;1.73;;;11.00;99.90;;;;;;10513189;28;20054;-65
2023/12/25 09:08:58;;;;;;;10.32;3.30;;;11.00;99.90;;;;;;10511127;28;20048;-64
2023/12/25 09:14:00;;;;;;;11.98;1.25;;;11.10;99.90;;;;;;10506458;28;20385;-63
2023/12/25 09:19:05;;;;;;;11.50;1.53;;;10.90;99.90;;;;;;10511408;28;20109;-64
2023/12/25 09:24:08;;;;;;;8.63;1.90;;;10.80;99.90;;;;;;10513913;28;20714;-64
2023/12/25 09:29:11;;;;;;;10.60;2.67;;;11.20;99.90;;;;;;10514012;28;20128;-64
2023/12/25 09:34:14;;;;;;;8.98;2.58;;;11.00;99.90;;;;;;10504259;28;20821;-64
2023/12/25 09:39:16;;;;;;;8.45;1.95;;;12.60;99.90;;;;;;10502750;28;20044;-65
2023/12/25 09:44:19;;;;;;;10.65;1.67;;;14.50;99.90;;;;;;10497169;28;20506;-64
2023/12/25 09:49:24;;;;;;;12.35;2.78;;;13.80;99.90;;;;;;10505321;28;20051;-64
2023/12/25 09:54:26;;;;;;;12.35;3.10;;;12.00;99.90;;;;;;10508216;28;20694;-65
2023/12/25 09:59:31;;;;;;;10.30;1.67;;;11.60;99.90;;;;;;10510794;28;20518;-65
2023/12/25 10:04:37;;;;;;;5.47;1.77;;;11.40;99.90;;;;;;10506695;28;20055;-64
2023/12/25 10:09:40;;;;;;;12.18;2.28;;;11.40;99.90;;;;;;10507488;28;20048;-65
2023/12/25 10:14:42;;;;;;;9.50;2.60;;;11.60;99.90;;;;;;10505551;28;20722;-64
2023/12/25 10:19:54;;;;;;;8.27;1.93;;;11.70;99.90;;;;;;10505863;28;20051;-65
2023/12/25 10:25:04;;;;;;;6.15;1.65;;;11.50;99.90;;;;;;10502562;28;20040;-64
2023/12/25 10:30:16;;;;;;;13.05;1.70;;;11.60;99.90;;;;;;10502458;28;20067;-64
2023/12/25 10:35:22;;;;;;;11.30;2.90;;;11.40;99.90;;;;;;10504897;28;20876;-64
2023/12/25 10:40:26;;;;;;;10.23;1.73;;;11.40;99.90;;;;;;10508244;28;20052;-64
2023/12/25 10:45:30;;;;;;;24.50;2.72;;;11.40;99.90;;;;;;10502699;28;20181;-65
2023/12/25 10:50:37;;;;;;;7.20;2.20;;;11.30;99.90;;;;;;10513252;28;20047;-64
2023/12/25 10:55:43;;;;;;;13.50;2.22;;;11.40;99.90;;;;;;10511276;28;20216;-65
2023/12/25 11:00:50;;;;;;;11.20;2.95;;;11.50;99.90;;;;;;10503768;28;20048;-64
2023/12/25 11:05:55;;;;;;;7.97;2.78;;;11.60;99.90;;;;;;10500627;28;20579;-64
2023/12/25 11:10:57;;;;;;;8.88;1.58;;;11.50;99.90;;;;;;10502938;28;20109;-64
2023/12/25 11:15:59;;;;;;;13.45;1.90;;;11.50;99.90;;;;;;10508399;28;20802;-64
2023/12/25 11:21:08;;;;;;;8.93;1.50;;;11.70;99.90;;;;;;10504740;28;20062;-64
2023/12/25 11:26:12;;;;;;;10.85;2.33;;;11.80;99.90;;;;;;10499392;28;20048;-64
2023/12/25 11:31:21;;;;;;;11.82;1.58;;;11.90;99.90;;;;;;10503037;28;20787;-65
2023/12/25 11:36:30;;;;;;;13.43;2.13;;;11.90;99.90;;;;;;10491924;28;20684;-64
2023/12/25 11:41:39;;;;;;;10.63;1.33;;;12.00;99.90;;;;;;10499260;28;20040;-65
2023/12/25 11:46:46;;;;;;;11.70;1.88;;;12.10;99.90;;;;;;10482632;28;20048;-65
2023/12/25 11:51:51;;;;;;;16.67;2.25;;;12.20;99.90;;;;;;10495740;28;20056;-65
2023/12/25 11:56:53;;;;;;;16.20;2.65;;;12.10;99.90;;;;;;10495187;28;20055;-66
2023/12/25 12:01:56;;;;;;;7.82;1.60;;;12.10;99.90;;;;;;10496446;28;20780;-64
2023/12/25 12:06:59;;;;;;;12.38;1.98;;;12.10;99.90;;;;;;10500232;28;20151;-65
2023/12/25 12:12:01;;;;;;;11.25;1.73;;;12.00;99.90;;;;;;10494591;28;20056;-65
2023/12/25 12:17:03;;;;;;;18.52;2.55;;;11.90;99.90;;;;;;10496640;28;20047;-64
2023/12/25 12:22:07;;;;;;;15.17;2.83;;;11.90;99.90;;;;;;10498543;28;20063;-66
2023/12/25 12:27:11;;;;;;;11.98;1.13;;;11.90;99.90;;;;;;10492845;28;20048;-64
2023/12/25 12:32:13;;;;;;;12.35;2.20;;;11.80;99.90;;;;;;10491285;28;20074;-65
2023/12/25 12:37:17;;;;;;;13.00;1.80;;;11.80;99.90;;;;;;10505363;28;20082;-63
2023/12/25 12:42:19;;;;;;;7.03;1.88;;;11.80;99.90;;;;;;10499558;28;20156;-65
2023/12/25 12:47:22;;;;;;;4.60;1.42;;;11.80;99.90;;;;;;10505078;28;20055;-64
2023/12/25 12:52:25;;;;;;;;;;;11.80;99.90;;;;;;10502554;28;20055;-64
2023/12/25 12:57:27;;;;;;;14.18;1.50;;;11.80;99.90;;;;;;10505101;28;19924;-62
2023/12/25 13:02:30;;;;;;;7.33;1.03;;;11.80;99.90;;;;;;10511696;28;20048;-62
2023/12/25 13:07:33;;;;;;;8.53;1.77;;;11.80;99.90;;;;;;10505057;28;20518;-63
2023/12/25 13:12:35;;;;;;;9.95;1.60;;;11.90;99.90;;;;;;10503251;28;20060;-62
2023/12/25 13:17:37;;;;;;;13.63;1.80;;;11.90;99.90;;;;;;10502307;28;20051;-63
2023/12/25 13:22:41;;;;;;;7.40;1.20;;;12.00;99.90;;;;;;10503829;28;20123;-64
2023/12/25 13:27:43;;;;;;;7.25;1.17;;;12.20;99.90;;;;;;10505265;28;20060;-64
2023/12/25 13:32:45;;;;;;;6.90;1.00;;;12.00;99.90;;;;;;10500604;28;20701;-63
2023/12/25 13:37:49;;;;;;;10.93;1.50;;;11.90;99.90;;;;;;10498809;28;20193;-63
2023/12/25 13:42:51;;;;;;;10.73;1.80;;;11.80;99.90;;;;;;10497046;28;20075;-63
2023/12/25 13:47:53;;;;;;;11.20;1.70;;;11.80;99.90;;;;;;10500924;28;20910;-64
2023/12/25 13:52:57;;;;;;;13.77;2.30;;;12.00;99.90;;;;;;10502271;28;20148;-65
2023/12/25 13:58:00;;;;;;;11.40;2.33;;;12.00;99.90;;;;;;10499311;28;20490;-65
2023/12/25 14:03:02;;;;;;;16.85;3.15;;;12.20;99.90;;;;;;10504553;28;20151;-64
2023/12/25 14:08:06;;;;;;;19.57;4.77;;;11.90;99.90;;;;;;10505049;28;20055;-64
2023/12/25 14:13:11;;;;;;;27.17;3.85;;;11.70;99.90;;;;;;10496916;28;20763;-63
2023/12/25 14:18:13;;;;;;;21.42;3.35;;;11.60;99.90;;;;;;10500936;28;20801;-66
2023/12/25 14:23:19;;;;;;;45.45;5.93;;;11.80;99.90;;;;;;10497677;28;20044;-62
2023/12/25 14:28:21;;;;;;;42.28;4.75;;;11.70;99.90;;;;;;10493427;28;20048;-64
2023/12/25 14:33:24;;;;;;;34.33;4.87;;;11.80;99.90;;;;;;10503572;28;20158;-63
2023/12/25 14:38:27;;;;;;;22.37;4.70;;;11.70;99.90;;;;;;10498666;28;20051;-64
2023/12/25 14:43:29;;;;;;;45.30;6.80;;;11.90;99.90;;;;;;10502844;28;20358;-64
2023/12/25 14:48:31;;;;;;;35.35;4.28;;;11.80;99.90;;;;;;10501519;28;20044;-64
2023/12/25 14:53:37;;;;;;;50.83;5.82;;;11.70;99.90;;;;;;10498903;28;20044;-64
2023/12/25 14:58:39;;;;;;;39.50;6.70;;;11.40;99.90;;;;;;10494262;28;20103;-64
2023/12/25 15:03:41;;;;;;;37.80;5.00;;;11.50;99.90;;;;;;10501710;28;20055;-65
2023/12/25 15:08:45;;;;;;;37.90;5.25;;;11.40;99.90;;;;;;10497270;28;20083;-63
2023/12/25 15:13:47;;;;;;;35.08;3.90;;;11.40;99.90;;;;;;10490804;28;20807;-63
2023/12/25 15:18:50;;;;;;;26.38;4.43;;;11.30;99.90;;;;;;10495170;28;21227;-63
2023/12/25 15:23:54;;;;;;;;;;;11.40;99.90;;;;;;10492451;28;20201;-64
2023/12/25 15:28:56;;;;;;;;;;;11.50;99.90;;;;;;10498879;28;21035;-64
2023/12/25 15:33:58;;;;;;;20.77;4.38;;;11.30;99.90;;;;;;10499753;28;20710;-64
2023/12/25 15:39:04;;;;;;;31.33;4.65;;;11.30;99.90;;;;;;10495846;28;20059;-63
2023/12/25 15:44:07;;;;;;;24.55;4.10;;;11.30;99.90;;;;;;10497172;28;21096;-64
2023/12/25 15:49:10;;;;;;;24.67;3.95;;;11.40;99.90;;;;;;10499532;28;20048;-64
2023/12/25 15:54:16;;;;;;;36.80;4.05;;;11.30;99.90;;;;;;10493103;28;20062;-64
2023/12/25 15:59:18;;;;;;;27.08;4.57;;;11.40;99.90;;;;;;10493508;28;20167;-64
2023/12/25 16:04:20;;;;;;;33.45;4.80;;;11.50;99.90;;;;;;10492329;28;20746;-63
2023/12/25 16:09:23;;;;;;;29.15;3.85;;;11.50;99.90;;;;;;10485749;28;20055;-65
2023/12/25 16:14:26;;;;;;;39.15;5.15;;;11.40;99.90;;;;;;10487814;28;20672;-64
2023/12/25 16:19:29;;;;;;;42.97;5.73;;;11.40;99.90;;;;;;10490825;28;22893;-64
2023/12/25 16:24:32;;;;;;;3.67;1.95;;;11.30;99.90;;;;;;10490285;28;20243;-65
2023/12/25 16:29:34;;;;;;;0.10;0.10;;;11.40;99.90;;;;;;10492098;28;20796;-64
2023/12/25 16:34:36;;;;;;;0.10;0.10;;;11.30;99.90;;;;;;10490811;28;20047;-64
2023/12/25 16:39:44;;;;;;;0.20;0.20;;;11.20;99.90;;;;;;10484500;28;20044;-65
2023/12/25 16:44:46;;;;;;;0.10;0.10;;;11.10;99.90;;;;;;10490740;28;20486;-64
2023/12/25 16:49:48;;;;;;;0.10;0.10;;;11.10;99.90;;;;;;10487535;28;20747;-64
2023/12/25 16:54:59;;;;;;;0.20;0.20;;;11.10;99.90;;;;;;10492038;28;20465;-65
2023/12/25 17:00:07;;;;;;;0.50;0.43;;;11.10;99.90;;;;;;10487423;28;20052;-65
2023/12/25 17:05:09;;;;;;;0.17;0.17;;;11.00;99.90;;;;;;10490205;28;20051;-66
2023/12/25 17:10:13;;;;;;;0.10;0.10;;;11.20;99.90;;;;;;10490065;28;20048;-64
2023/12/25 17:15:16;;;;;;;0.10;0.10;;;11.00;99.90;;;;;;10484914;28;21373;-64
2023/12/25 17:20:18;;;;;;;0.20;0.20;;;11.00;99.90;;;;;;10495464;28;20059;-65
2023/12/25 17:25:21;;;;;;;0.10;0.10;;;11.10;99.90;;;;;;10501299;28;20048;-65
2023/12/25 17:30:24;;;;;;;0.10;0.10;;;11.00;99.90;;;;;;10499764;28;20132;-64
2023/12/25 17:35:26;;;;;;;0.10;0.10;;;11.00;99.90;;;;;;10505300;28;20052;-64
2023/12/25 17:40:30;;;;;;;0.10;0.10;;;11.10;99.90;;;;;;10509196;28;20098;-64
2023/12/25 17:45:32;;;;;;;0.10;0.10;;;11.10;99.90;;;;;;10501763;28;20063;-63
2023/12/25 17:50:34;;;;;;;0.10;0.10;;;11.10;99.90;;;;;;10509244;28;20808;-63
2023/12/25 17:55:38;;;;;;;0.10;0.10;;;11.00;99.90;;;;;;10500311;28;20074;-64
2023/12/25 18:00:40;;;;;;;0.10;0.10;;;11.10;99.90;;;;;;10496821;28;20109;-63
2023/12/25 18:05:42;;;;;;;0.20;0.20;;;11.10;99.90;;;;;;10500709;28;20048;-64
2023/12/25 18:10:49;;;;;;;0.10;0.10;;;11.00;99.90;;;;;;10501001;28;20066;-63
2023/12/25 18:15:52;;;;;;;0.20;0.20;;;10.80;99.90;;;;;;10502518;28;20546;-65
2023/12/25 18:20:54;;;;;;;0.10;0.10;;;10.80;99.90;;;;;;10497451;28;20055;-65
2023/12/25 18:30:44;;;;;;;0.10;0.10;;;11.60;99.90;;;;;;10616256;27;20650;-63
2023/12/25 18:35:46;;;;;;;0.10;0.10;;;10.60;99.90;;;;;;10580378;27;20046;-69
2023/12/25 18:40:48;;;;;;;0.10;0.10;;;10.50;99.90;;;;;;10574534;27;20055;-68
2023/12/25 18:45:52;;;;;;;0.10;0.10;;;10.50;99.90;;;;;;10577565;27;20047;-69
2023/12/25 18:50:54;;;;;;;0.10;0.10;;;10.40;99.90;;;;;;10574502;27;21455;-70
2023/12/25 18:55:56;;;;;;;0.10;0.10;;;10.30;99.90;;;;;;10575833;27;20055;-69
2023/12/25 19:01:00;;;;;;;0.20;0.20;;;10.30;99.90;;;;;;10581331;27;20877;-68
2023/12/25 19:06:02;;;;;;;0.10;0.10;;;10.30;99.90;;;;;;10573293;27;20052;-69
2023/12/25 19:11:05;;;;;;;0.20;0.20;;;10.40;99.90;;;;;;10572292;27;20861;-68
2023/12/25 19:16:09;;;;;;;0.10;0.10;;;10.40;99.90;;;;;;10579203;27;20055;-72
2023/12/25 19:21:12;;;;;;;0.10;0.10;;;10.40;99.90;;;;;;10579528;27;20043;-76
2023/12/25 19:26:14;;;;;;;0.50;0.50;;;10.30;99.90;;;;;;10576726;27;20066;-75
2023/12/25 19:31:19;;;;;;;0.10;0.10;;;10.30;99.90;;;;;;10581011;27;20051;-73
2023/12/25 19:36:21;;;;;;;0.13;0.13;;;10.30;99.90;;;;;;10563271;27;20569;-71
2023/12/25 19:41:23;;;;;;;0.60;0.60;;;10.50;99.90;;;;;;10546954;27;20055;-71
2023/12/25 19:46:27;;;;;;;0.10;0.10;;;10.70;99.90;;;;;;10542656;27;20055;-72
2023/12/25 19:51:29;;;;;;;0.10;0.10;;;10.70;99.90;;;;;;10539749;27;20043;-71
2023/12/25 19:56:31;;;;;;;0.50;0.50;;;10.70;99.90;;;;;;10543994;27;20050;-71
2023/12/25 20:01:35;;;;;;;6.70;1.35;;;10.90;99.90;;;;;;10535616;27;20159;-71
2023/12/25 20:06:37;;;;;;;4.18;1.42;;;10.90;99.90;;;;;;10538675;27;20117;-70
2023/12/25 20:11:39;;;;;;;7.95;1.55;;;11.00;99.90;;;;;;10539911;27;20078;-69
2023/12/25 20:16:43;;;;;;;0.40;0.40;;;11.00;99.90;;;;;;10537265;27;20052;-71
2023/12/25 20:21:45;;;;;;;5.07;3.28;;;11.00;99.90;;;;;;10542084;27;20057;-71
2023/12/25 20:26:47;;;;;;;14.17;2.17;;;11.00;99.90;;;;;;10535639;27;20079;-71
2023/12/25 20:31:55;;;;;;;0.10;0.10;;;10.90;99.90;;;;;;10535399;27;20447;-71
2023/12/25 20:36:57;;;;;;;18.38;2.33;;;10.90;99.90;;;;;;10535626;27;20679;-71
2023/12/25 20:41:59;;;;;;;0.32;0.32;;;11.00;99.90;;;;;;10535803;27;20051;-71
2023/12/25 20:47:03;;;;;;;0.10;0.10;;;11.00;99.90;;;;;;10533190;27;20044;-72
2023/12/25 20:52:06;;;;;;;0.20;0.20;;;11.00;99.90;;;;;;10539741;27;20109;-73
2023/12/25 20:57:08;;;;;;;0.10;0.10;;;11.10;99.90;;;;;;10538542;27;20684;-71
2023/12/25 21:02:12;;;;;;;0.20;0.20;;;11.00;99.90;;;;;;10537221;27;20696;-71
2023/12/25 21:07:18;;;;;;;30.73;4.93;;;10.90;99.90;;;;;;10537266;27;20593;-71
2023/12/25 21:12:20;;;;;;;0.10;0.10;;;10.90;99.90;;;;;;10528531;27;20051;-73
2023/12/25 21:17:24;;;;;;;0.10;0.10;;;10.90;99.90;;;;;;10536530;27;20052;-72
2023/12/25 21:22:27;;;;;;;0.32;0.32;;;10.90;99.90;;;;;;10531568;27;20050;-72
2023/12/25 21:27:29;;;;;;;;;;;10.80;99.90;;;;;;10520329;27;20066;-71
2023/12/25 21:32:32;;;;;;;18.55;3.63;;;10.90;99.90;;;;;;10532753;27;19930;-71
2023/12/25 21:37:35;;;;;;;6.97;3.83;;;10.80;99.90;;;;;;10531974;27;20872;-73
2023/12/25 21:42:37;;;;;;;0.10;0.10;;;10.80;99.90;;;;;;10533921;27;20058;-72
2023/12/25 21:47:41;;;;;;;0.10;0.10;;;10.90;99.90;;;;;;10533343;27;20047;-72
2023/12/25 21:52:43;;;;;;;0.10;0.10;;;10.80;99.90;;;;;;10530697;27;20055;-72
2023/12/25 21:57:45;;;;;;;28.30;4.63;;;10.80;99.90;;;;;;10535014;27;20050;-72
2023/12/25 22:02:49;;;;;;;4.53;4.17;;;10.80;99.90;;;;;;10537476;27;20054;-72
2023/12/25 22:07:51;;;;;;;0.80;0.80;;;10.70;99.90;;;;;;10537723;27;20055;-72
2023/12/25 22:12:53;;;;;;;21.40;3.35;;;10.80;99.90;;;;;;10534429;27;20759;-74
2023/12/25 22:17:57;;;;;;;0.60;0.60;;;10.90;99.90;;;;;;10544255;27;20158;-71
2023/12/25 22:23:00;;;;;;;14.32;0.95;;;10.70;99.90;;;;;;10538173;27;20161;-72
2023/12/25 22:28:03;;;;;;;3.63;2.55;;;10.60;99.90;;;;;;10548069;28;20451;-71
2023/12/25 22:33:07;;;;;;;13.45;2.22;;;10.60;99.90;;;;;;10548737;28;20341;-71
2023/12/25 22:38:14;;;;;;;0.80;0.65;;;10.60;99.90;;;;;;10529243;28;20055;-71
2023/12/25 22:43:16;;;;;;;0.20;0.20;;;10.50;99.90;;;;;;10534478;28;20048;-71
2023/12/25 22:48:19;;;;;;;0.88;0.88;;;10.60;99.90;;;;;;10537006;28;20092;-70
2023/12/25 22:53:22;;;;;;;0.17;0.17;;;10.50;99.90;;;;;;10539124;28;20055;-70
2023/12/25 22:58:24;;;;;;;0.10;0.10;;;10.60;99.90;;;;;;10544545;28;20051;-72
2023/12/25 23:03:27;;;;;;;70.10;9.33;;;10.50;99.90;;;;;;10542737;28;20766;-71
2023/12/25 23:08:29;;;;;;;23.85;3.35;;;10.50;99.90;;;;;;10536642;28;21331;-71
2023/12/25 23:13:32;;;;;;;57.35;10.57;;;10.40;99.90;;;;;;10536667;28;20678;-69
2023/12/25 23:18:35;;;;;;;22.25;4.32;;;10.50;99.90;;;;;;10540855;27;20040;-71
2023/12/25 23:23:38;;;;;;;0.20;0.20;;;10.50;99.90;;;;;;10547529;27;20051;-72
2023/12/25 23:28:41;;;;;;;0.53;0.53;;;10.50;99.90;;;;;;10546646;27;20052;-73
2023/12/25 23:33:46;;;;;;;0.20;0.20;;;10.60;99.90;;;;;;10543369;27;20070;-72
2023/12/25 23:38:52;;;;;;;1.15;0.90;;;10.70;99.90;;;;;;10556192;27;20043;-71
2023/12/25 23:43:59;;;;;;;0.10;0.10;;;10.70;99.90;;;;;;10551227;27;20052;-70
2023/12/25 23:49:05;;;;;;;6.90;1.85;;;10.60;99.90;;;;;;10548560;27;20120;-72
2023/12/25 23:54:16;;;;;;;0.17;0.17;;;10.60;99.90;;;;;;10545782;27;20108;-71
2023/12/25 23:59:19;;;;;;;32.22;3.80;;;10.60;99.90;;;;;;10541484;27;20047;-71
